createdAt,value
2022-10-09T00:00:11.130Z,12.10
2022-10-09T00:02:39.111Z,12.07
2022-10-09T00:05:07.912Z,11.99
2022-10-09T00:07:35.857Z,12.02
2022-10-09T00:10:04.337Z,12.02
2022-10-09T00:12:32.367Z,12.03
2022-10-09T00:15:00.261Z,12.02
2022-10-09T00:17:29.531Z,11.98
2022-10-09T00:19:57.422Z,11.94
2022-10-09T00:22:25.300Z,11.88
2022-10-09T00:24:53.217Z,11.85
2022-10-09T00:27:22.913Z,11.86
2022-10-09T00:29:50.931Z,11.82
2022-10-09T00:32:19.021Z,11.76
2022-10-09T00:34:48.285Z,11.84
2022-10-09T00:37:16.293Z,11.76
2022-10-09T00:39:44.414Z,11.75
2022-10-09T00:42:13.073Z,11.69
2022-10-09T00:44:54.189Z,11.66
2022-10-09T00:47:26.656Z,11.73
2022-10-09T00:49:58.848Z,11.57
2022-10-09T00:52:27.390Z,11.57
2022-10-09T00:54:55.990Z,11.56
2022-10-09T00:57:24.011Z,11.58
2022-10-09T00:59:51.994Z,11.57
2022-10-09T01:02:19.941Z,11.52
2022-10-09T01:04:47.857Z,11.46
2022-10-09T01:07:32.896Z,11.36
2022-10-09T01:10:04.545Z,11.28
2022-10-09T01:12:42.377Z,11.21
2022-10-09T01:15:16.916Z,11.13
2022-10-09T01:17:51.593Z,10.96
2022-10-09T01:20:28.635Z,10.91
2022-10-09T01:23:18.394Z,10.91
2022-10-09T01:25:55.462Z,10.81
2022-10-09T01:28:25.271Z,10.87
2022-10-09T01:30:53.194Z,10.72
2022-10-09T01:33:21.143Z,10.44
2022-10-09T01:35:49.101Z,10.51
2022-10-09T01:38:17.796Z,10.53
2022-10-09T01:40:45.920Z,10.49
2022-10-09T01:43:13.981Z,10.56
2022-10-09T01:45:45.101Z,10.56
2022-10-09T01:48:16.474Z,10.52
2022-10-09T01:50:46.270Z,10.55
2022-10-09T01:53:16.969Z,10.43
2022-10-09T01:55:47.390Z,10.34
2022-10-09T01:58:19.890Z,9.99
2022-10-09T02:00:54.207Z,9.86
2022-10-09T02:03:23.033Z,9.83
2022-10-09T02:05:52.469Z,9.94
2022-10-09T02:08:21.219Z,9.74
2022-10-09T02:10:51.446Z,9.63
2022-10-09T02:13:19.567Z,9.57
2022-10-09T02:15:51.610Z,9.38
2022-10-09T02:18:24.839Z,9.31
2022-10-09T02:20:56.976Z,9.18
2022-10-09T02:23:25.711Z,9.23
2022-10-09T02:25:54.319Z,9.18
2022-10-09T02:28:22.897Z,9.16
2022-10-09T02:30:58.397Z,9.14
2022-10-09T02:33:32.512Z,8.99
2022-10-09T02:36:00.546Z,9.02
2022-10-09T02:38:28.753Z,8.89
2022-10-09T02:40:59.038Z,8.86
2022-10-09T02:43:26.954Z,8.98
2022-10-09T02:45:56.230Z,9.09
2022-10-09T02:48:24.117Z,9.30
2022-10-09T02:50:51.997Z,9.37
2022-10-09T02:53:19.851Z,9.22
2022-10-09T02:55:47.769Z,9.28
2022-10-09T02:58:15.704Z,9.28
2022-10-09T03:00:43.600Z,9.38
2022-10-09T03:03:12.837Z,9.36
2022-10-09T03:05:40.750Z,9.24
2022-10-09T03:08:08.663Z,9.32
2022-10-09T03:10:38.202Z,9.12
2022-10-09T03:13:06.431Z,9.02
2022-10-09T03:15:34.964Z,8.83
2022-10-09T03:18:02.901Z,8.73
2022-10-09T03:20:32.260Z,8.75
2022-10-09T03:23:00.129Z,8.60
2022-10-09T03:25:28.057Z,8.35
2022-10-09T03:27:55.942Z,8.30
2022-10-09T03:30:23.817Z,8.36
2022-10-09T03:32:51.777Z,8.25
2022-10-09T03:35:19.719Z,8.09
2022-10-09T03:37:48.987Z,8.28
2022-10-09T03:40:16.959Z,8.39
2022-10-09T03:42:44.859Z,8.43
2022-10-09T03:45:12.738Z,8.49
2022-10-09T03:47:40.664Z,8.58
2022-10-09T03:50:09.504Z,8.44
2022-10-09T03:52:37.419Z,8.25
2022-10-09T03:55:07.691Z,8.21
2022-10-09T03:57:36.425Z,8.15
2022-10-09T04:00:05.167Z,8.08
2022-10-09T04:02:33.451Z,8.27
2022-10-09T04:05:01.558Z,8.25
2022-10-09T04:07:29.482Z,8.07
2022-10-09T04:09:57.409Z,7.91
2022-10-09T04:12:26.703Z,7.79
2022-10-09T04:14:54.589Z,7.62
2022-10-09T04:17:22.486Z,7.51
2022-10-09T04:19:50.383Z,7.56
2022-10-09T04:22:18.274Z,7.72
2022-10-09T04:24:46.283Z,7.51
2022-10-09T04:27:14.284Z,7.59
2022-10-09T04:29:43.561Z,7.53
2022-10-09T04:32:11.534Z,7.52
2022-10-09T04:34:39.418Z,7.40
2022-10-09T04:37:07.286Z,7.23
2022-10-09T04:39:35.184Z,7.01
2022-10-09T04:42:03.066Z,7.02
2022-10-09T04:44:30.959Z,6.91
2022-10-09T04:47:00.195Z,6.86
2022-10-09T04:49:28.178Z,6.76
2022-10-09T04:51:56.063Z,6.73
2022-10-09T04:54:24.002Z,6.72
2022-10-09T04:56:51.918Z,6.65
2022-10-09T04:59:19.787Z,6.52
2022-10-09T05:01:47.856Z,6.61
2022-10-09T05:04:17.170Z,6.47
2022-10-09T05:06:45.123Z,6.43
2022-10-09T05:09:13.013Z,6.33
2022-10-09T05:11:42.804Z,6.26
2022-10-09T05:14:11.105Z,6.23
2022-10-09T05:17:08.362Z,6.32
2022-10-09T05:19:28.397Z,6.32
2022-10-09T05:21:56.324Z,6.27
2022-10-09T05:24:24.187Z,6.27
2022-10-09T05:26:52.761Z,6.16
2022-10-09T05:29:20.684Z,6.11
2022-10-09T05:31:49.757Z,6.09
2022-10-09T05:34:17.822Z,6.13
2022-10-09T05:36:47.107Z,6.17
2022-10-09T05:39:15.045Z,6.20
2022-10-09T05:41:42.917Z,6.30
2022-10-09T05:44:10.916Z,6.42
2022-10-09T05:46:38.843Z,6.48
2022-10-09T05:49:07.240Z,6.68
2022-10-09T05:51:36.535Z,6.83
2022-10-09T05:54:06.795Z,6.78
2022-10-09T05:56:36.864Z,6.99
2022-10-09T05:59:05.918Z,7.11
2022-10-09T06:01:35.499Z,7.21
2022-10-09T06:04:04.067Z,7.40
2022-10-09T06:06:34.266Z,7.43
2022-10-09T06:09:02.165Z,7.55
2022-10-09T06:11:33.777Z,7.79
2022-10-09T06:14:03.253Z,7.95
2022-10-09T06:16:33.416Z,7.99
2022-10-09T06:19:02.496Z,8.12
2022-10-09T06:21:30.516Z,8.20
2022-10-09T06:23:59.954Z,8.39
2022-10-09T06:26:30.127Z,8.71
2022-10-09T06:29:00.686Z,8.54
2022-10-09T06:31:29.829Z,8.90
2022-10-09T06:34:00.083Z,8.92
2022-10-09T06:36:30.087Z,9.23
2022-10-09T06:38:59.860Z,9.14
2022-10-09T06:41:28.582Z,9.10
2022-10-09T06:43:57.505Z,9.35
2022-10-09T06:46:28.593Z,9.46
2022-10-09T06:48:56.753Z,9.70
2022-10-09T06:51:24.985Z,9.82
2022-10-09T06:53:54.041Z,9.84
2022-10-09T06:56:23.973Z,10.01
2022-10-09T06:58:51.880Z,9.65
2022-10-09T07:01:21.998Z,9.49
2022-10-09T07:03:56.332Z,9.57
2022-10-09T07:06:25.424Z,9.51
2022-10-09T07:08:54.778Z,9.66
2022-10-09T07:11:24.106Z,9.84
2022-10-09T07:13:54.488Z,9.85
2022-10-09T07:16:23.486Z,10.12
2022-10-09T07:18:52.998Z,10.23
2022-10-09T07:21:20.967Z,10.55
2022-10-09T07:23:48.905Z,10.71
2022-10-09T07:26:19.120Z,11.09
2022-10-09T07:28:47.520Z,11.29
2022-10-09T07:31:15.841Z,11.23
2022-10-09T07:33:43.818Z,10.97
2022-10-09T07:36:13.265Z,10.66
2022-10-09T07:38:41.457Z,10.51
2022-10-09T07:41:10.614Z,10.93
2022-10-09T07:43:39.679Z,11.04
2022-10-09T07:46:08.787Z,11.12
2022-10-09T07:48:36.839Z,11.32
2022-10-09T07:51:09.310Z,11.33
2022-10-09T07:53:39.316Z,11.53
2022-10-09T07:56:08.004Z,11.60
2022-10-09T07:58:35.984Z,11.64
2022-10-09T08:01:07.444Z,11.84
2022-10-09T08:03:35.821Z,11.92
2022-10-09T08:06:03.852Z,11.98
2022-10-09T08:08:32.001Z,12.13
2022-10-09T08:11:01.497Z,12.16
2022-10-09T08:13:29.516Z,12.10
2022-10-09T08:15:59.064Z,12.12
2022-10-09T08:18:26.961Z,12.35
2022-10-09T08:20:59.641Z,12.33
2022-10-09T08:23:27.602Z,12.47
2022-10-09T08:25:55.758Z,12.53
2022-10-09T08:28:25.505Z,12.23
2022-10-09T08:30:53.467Z,12.42
2022-10-09T08:33:22.183Z,12.63
2022-10-09T08:35:50.238Z,12.54
2022-10-09T08:38:44.837Z,12.86
2022-10-09T08:41:09.076Z,12.82
2022-10-09T08:43:42.412Z,12.77
2022-10-09T08:46:20.509Z,12.62
2022-10-09T08:48:49.740Z,12.99
2022-10-09T08:51:22.314Z,12.77
2022-10-09T08:53:53.625Z,12.78
2022-10-09T08:56:21.701Z,12.89
2022-10-09T08:58:50.985Z,12.85
2022-10-09T09:01:24.639Z,12.84
2022-10-09T09:04:08.796Z,12.96
2022-10-09T09:06:42.165Z,13.14
2022-10-09T09:09:14.877Z,13.19
2022-10-09T09:11:51.160Z,12.97
2022-10-09T09:14:30.454Z,13.66
2022-10-09T09:17:00.491Z,13.82
2022-10-09T09:19:42.178Z,14.07
2022-10-09T09:22:11.804Z,14.12
2022-10-09T09:24:42.278Z,13.52
2022-10-09T09:27:13.360Z,13.50
2022-10-09T09:29:46.270Z,13.50
2022-10-09T09:32:19.166Z,13.47
2022-10-09T09:34:47.294Z,13.95
2022-10-09T09:37:15.479Z,13.98
2022-10-09T09:40:34.436Z,14.76
2022-10-09T09:42:32.007Z,14.74
2022-10-09T09:45:04.773Z,14.83
2022-10-09T09:47:36.183Z,15.41
2022-10-09T09:50:12.153Z,14.94
2022-10-09T09:52:47.359Z,13.96
2022-10-09T09:55:25.355Z,13.98
2022-10-09T09:57:53.299Z,13.82
2022-10-09T10:00:24.598Z,14.77
2022-10-09T10:03:03.456Z,15.33
2022-10-09T10:05:36.419Z,14.91
2022-10-09T10:08:15.447Z,14.34
2022-10-09T10:10:46.285Z,14.30
2022-10-09T10:13:16.802Z,14.62
2022-10-09T10:15:51.961Z,14.91
2022-10-09T10:18:20.720Z,14.75
2022-10-09T10:20:49.989Z,14.27
2022-10-09T10:23:24.732Z,13.74
2022-10-09T10:25:54.214Z,14.21
2022-10-09T10:28:25.995Z,14.44
2022-10-09T10:30:56.926Z,14.77
2022-10-09T10:33:28.560Z,15.14
2022-10-09T10:35:57.485Z,15.04
2022-10-09T10:38:31.091Z,14.86
2022-10-09T10:41:06.583Z,14.87
2022-10-09T10:43:39.422Z,15.55
2022-10-09T10:46:14.230Z,16.09
2022-10-09T10:48:45.597Z,15.91
2022-10-09T10:51:40.545Z,16.46
2022-10-09T10:54:19.021Z,16.59
2022-10-09T10:56:49.517Z,16.24
2022-10-09T10:59:30.698Z,15.64
2022-10-09T11:02:26.356Z,15.62
2022-10-09T11:04:56.427Z,15.23
2022-10-09T11:07:31.508Z,14.95
2022-10-09T11:10:06.564Z,15.09
2022-10-09T11:12:48.090Z,14.90
2022-10-09T11:15:22.135Z,14.77
2022-10-09T11:17:57.273Z,14.77
2022-10-09T11:20:44.824Z,14.52
2022-10-09T11:23:18.829Z,14.96
2022-10-09T11:25:52.393Z,15.01
2022-10-09T11:28:23.703Z,15.18
2022-10-09T11:30:55.637Z,15.59
2022-10-09T11:33:30.960Z,15.42
2022-10-09T11:36:02.894Z,15.15
2022-10-09T11:38:33.436Z,14.82
2022-10-09T11:41:06.423Z,14.76
2022-10-09T11:43:44.798Z,14.62
2022-10-09T11:46:19.382Z,14.90
2022-10-09T11:48:53.582Z,14.75
2022-10-09T11:51:28.715Z,15.01
2022-10-09T11:53:57.033Z,14.85
2022-10-09T11:56:27.028Z,15.23
2022-10-09T11:58:59.514Z,15.33
2022-10-09T12:01:31.046Z,15.60
2022-10-09T12:04:07.019Z,15.85
2022-10-09T12:06:46.546Z,15.96
2022-10-09T12:09:21.518Z,15.66
2022-10-09T12:11:56.661Z,15.38
2022-10-09T12:14:26.978Z,15.26
2022-10-09T12:16:55.178Z,15.84
2022-10-09T12:19:26.972Z,16.09
2022-10-09T12:22:02.205Z,15.54
2022-10-09T12:24:34.037Z,15.92
2022-10-09T12:27:04.213Z,15.67
2022-10-09T12:29:35.704Z,15.63
2022-10-09T12:32:06.844Z,15.57
2022-10-09T12:34:39.725Z,15.28
2022-10-09T12:37:15.611Z,15.39
2022-10-09T12:39:48.748Z,15.70
2022-10-09T12:42:20.005Z,15.35
2022-10-09T12:44:49.050Z,14.93
2022-10-09T12:47:20.484Z,14.82
2022-10-09T12:50:04.846Z,14.44
2022-10-09T12:52:33.562Z,14.37
2022-10-09T12:55:02.485Z,14.19
2022-10-09T12:57:30.545Z,14.10
2022-10-09T12:59:58.885Z,13.99
2022-10-09T13:02:26.920Z,13.94
2022-10-09T13:05:02.172Z,13.91
2022-10-09T13:07:32.511Z,13.80
2022-10-09T13:10:03.957Z,13.76
2022-10-09T13:12:32.564Z,13.87
2022-10-09T13:15:01.388Z,14.14
2022-10-09T13:17:33.695Z,14.09
2022-10-09T13:20:05.669Z,13.94
2022-10-09T13:22:35.849Z,13.97
2022-10-09T13:25:04.174Z,14.15
2022-10-09T13:27:34.958Z,13.88
2022-10-09T13:30:03.312Z,14.28
2022-10-09T13:32:31.358Z,14.33
2022-10-09T13:35:00.376Z,14.02
2022-10-09T13:37:29.675Z,13.99
2022-10-09T13:39:59.601Z,13.84
2022-10-09T13:42:29.471Z,13.85
2022-10-09T13:44:57.486Z,13.79
2022-10-09T13:47:25.390Z,13.29
2022-10-09T13:49:53.310Z,13.26
2022-10-09T13:52:21.204Z,13.21
2022-10-09T13:54:50.459Z,13.21
2022-10-09T13:57:18.417Z,13.12
2022-10-09T13:59:46.276Z,13.14
2022-10-09T14:02:14.371Z,13.24
2022-10-09T14:04:42.664Z,13.73
2022-10-09T14:07:10.589Z,13.75
2022-10-09T14:09:38.788Z,13.66
2022-10-09T14:12:08.145Z,13.92
2022-10-09T14:14:36.290Z,13.52
2022-10-09T14:17:04.213Z,13.58
2022-10-09T14:19:32.221Z,13.49
2022-10-09T14:22:00.094Z,13.45
2022-10-09T14:24:28.156Z,13.55
2022-10-09T14:26:56.042Z,13.64
2022-10-09T14:29:25.412Z,13.55
2022-10-09T14:31:53.324Z,13.62
2022-10-09T14:34:21.933Z,13.61
2022-10-09T14:36:49.991Z,13.64
2022-10-09T14:39:17.979Z,13.66
2022-10-09T14:41:45.924Z,13.45
2022-10-09T14:44:13.991Z,13.32
2022-10-09T14:46:43.257Z,13.22
2022-10-09T14:49:11.684Z,13.23
2022-10-09T14:51:40.991Z,13.14
2022-10-09T14:54:10.020Z,13.26
2022-10-09T14:56:37.966Z,13.30
2022-10-09T14:59:06.920Z,13.22
2022-10-09T15:01:35.730Z,13.14
2022-10-09T15:04:05.872Z,13.04
2022-10-09T15:06:34.585Z,12.92
2022-10-09T15:09:05.516Z,12.89
2022-10-09T15:11:35.071Z,12.81
2022-10-09T15:14:03.537Z,12.64
2022-10-09T15:16:31.433Z,12.60
2022-10-09T15:18:59.424Z,12.57
2022-10-09T15:21:30.595Z,12.50
2022-10-09T15:24:00.230Z,12.39
2022-10-09T15:26:29.824Z,12.32
2022-10-09T15:28:57.831Z,12.22
2022-10-09T15:31:28.077Z,12.13
2022-10-09T15:33:57.438Z,12.11
2022-10-09T15:36:26.124Z,12.00
2022-10-09T15:38:55.390Z,12.02
2022-10-09T15:41:24.947Z,11.88
2022-10-09T15:43:54.680Z,11.80
2022-10-09T15:46:22.689Z,11.79
2022-10-09T15:48:50.925Z,11.82
2022-10-09T15:51:19.234Z,11.69
2022-10-09T15:53:48.376Z,11.64
2022-10-09T15:56:19.753Z,11.53
2022-10-09T15:58:47.649Z,11.50
2022-10-09T16:01:17.055Z,11.56
2022-10-09T16:03:45.546Z,11.61
2022-10-09T16:06:15.022Z,11.48
2022-10-09T16:08:43.661Z,11.37
2022-10-09T16:11:13.833Z,11.35
2022-10-09T16:13:46.023Z,11.31
2022-10-09T16:16:15.766Z,11.21
2022-10-09T16:18:43.733Z,11.14
2022-10-09T16:21:14.062Z,11.20
2022-10-09T16:23:42.138Z,11.24
2022-10-09T16:26:10.243Z,11.11
2022-10-09T16:28:38.327Z,11.28
2022-10-09T16:31:07.777Z,11.00
2022-10-09T16:33:35.718Z,10.91
2022-10-09T16:36:11.212Z,10.86
2022-10-09T16:38:39.174Z,10.74
2022-10-09T16:41:09.013Z,10.61
2022-10-09T16:43:37.501Z,10.40
2022-10-09T16:46:16.490Z,10.36
2022-10-09T16:48:44.368Z,10.13
2022-10-09T16:51:13.345Z,10.03
2022-10-09T16:53:42.059Z,9.94
2022-10-09T16:56:11.931Z,9.66
2022-10-09T16:58:39.951Z,9.64
2022-10-09T17:01:10.072Z,9.54
2022-10-09T17:03:41.357Z,9.53
2022-10-09T17:06:10.841Z,9.38
2022-10-09T17:08:39.110Z,9.30
2022-10-09T17:11:08.280Z,9.16
2022-10-09T17:13:36.234Z,9.07
2022-10-09T17:16:06.316Z,8.90
2022-10-09T17:18:34.206Z,8.87
2022-10-09T17:21:04.238Z,8.86
2022-10-09T17:23:32.209Z,8.90
2022-10-09T17:26:00.648Z,8.85
2022-10-09T17:28:28.574Z,8.96
2022-10-09T17:30:56.524Z,9.04
2022-10-09T17:33:24.554Z,8.78
2022-10-09T17:35:52.442Z,8.81
2022-10-09T17:38:21.727Z,8.88
2022-10-09T17:40:49.628Z,8.84
2022-10-09T17:43:17.604Z,8.78
2022-10-09T17:45:46.857Z,8.89
2022-10-09T17:48:14.764Z,8.77
2022-10-09T17:50:51.481Z,8.61
2022-10-09T17:53:22.635Z,8.57
2022-10-09T17:55:50.925Z,8.39
2022-10-09T17:58:19.301Z,8.50
2022-10-09T18:00:47.903Z,8.56
2022-10-09T18:03:16.215Z,8.34
2022-10-09T18:05:44.911Z,8.44
2022-10-09T18:08:13.229Z,8.50
2022-10-09T18:10:42.855Z,8.34
2022-10-09T18:13:11.868Z,8.17
2022-10-09T18:15:40.219Z,8.35
2022-10-09T18:18:08.940Z,8.01
2022-10-09T18:20:37.604Z,8.07
2022-10-09T18:23:06.176Z,8.11
2022-10-09T18:25:34.371Z,8.05
2022-10-09T18:28:03.741Z,8.04
2022-10-09T18:30:31.738Z,8.05
2022-10-09T18:32:59.756Z,8.16
2022-10-09T18:35:30.363Z,7.91
2022-10-09T18:37:58.229Z,7.79
2022-10-09T18:40:26.086Z,7.75
2022-10-09T18:42:53.966Z,7.79
2022-10-09T18:45:23.293Z,8.10
2022-10-09T18:47:52.231Z,8.28
2022-10-09T18:50:20.156Z,8.50
2022-10-09T18:52:48.344Z,8.54
2022-10-09T18:55:18.682Z,8.66
2022-10-09T18:57:47.495Z,8.39
2022-10-09T19:00:16.268Z,8.80
2022-10-09T19:02:45.502Z,9.64
2022-10-09T19:05:13.389Z,9.74
2022-10-09T19:07:41.625Z,9.56
2022-10-09T19:10:10.204Z,9.50
2022-10-09T19:12:38.078Z,9.59
2022-10-09T19:15:11.709Z,9.62
2022-10-09T19:17:40.540Z,9.72
2022-10-09T19:20:10.342Z,9.77
2022-10-09T19:22:38.207Z,9.79
2022-10-09T19:25:06.962Z,9.88
2022-10-09T19:27:35.007Z,9.89
2022-10-09T19:30:03.222Z,9.82
2022-10-09T19:32:31.152Z,9.72
2022-10-09T19:34:59.055Z,9.68
2022-10-09T19:37:29.854Z,9.48
2022-10-09T19:39:58.140Z,9.42
2022-10-09T19:42:26.016Z,9.30
2022-10-09T19:44:53.964Z,9.51
2022-10-09T19:47:23.678Z,9.43
2022-10-09T19:49:51.586Z,9.16
2022-10-09T19:52:20.081Z,9.48
2022-10-09T19:54:49.462Z,9.41
2022-10-09T19:57:17.362Z,9.31
2022-10-09T19:59:45.483Z,9.17
2022-10-09T20:02:13.408Z,8.93
2022-10-09T20:04:41.461Z,8.75
2022-10-09T20:07:12.661Z,8.80
2022-10-09T20:09:41.176Z,8.82
2022-10-09T20:12:10.509Z,8.79
2022-10-09T20:14:38.441Z,8.77
2022-10-09T20:17:06.423Z,8.56
2022-10-09T20:19:34.297Z,8.40
2022-10-09T20:22:02.257Z,8.44
2022-10-09T20:24:30.229Z,8.21
2022-10-09T20:26:58.177Z,8.40
2022-10-09T20:29:27.989Z,8.17
2022-10-09T20:31:56.142Z,8.14
2022-10-09T20:34:26.879Z,7.94
2022-10-09T20:36:55.425Z,7.80
2022-10-09T20:39:23.365Z,7.89
2022-10-09T20:41:52.061Z,8.47
2022-10-09T20:44:19.948Z,8.61
2022-10-09T20:46:49.431Z,8.35
2022-10-09T20:49:17.352Z,8.23
2022-10-09T20:51:45.241Z,8.11
2022-10-09T20:54:18.006Z,8.02
2022-10-09T20:56:45.938Z,7.87
2022-10-09T20:59:14.356Z,8.26
2022-10-09T21:01:42.344Z,8.23
2022-10-09T21:04:12.248Z,8.23
2022-10-09T21:06:40.360Z,8.15
2022-10-09T21:09:08.819Z,7.93
2022-10-09T21:11:36.957Z,7.85
2022-10-09T21:14:05.041Z,7.96
2022-10-09T21:16:33.039Z,7.95
2022-10-09T21:19:02.478Z,7.88
2022-10-09T21:21:32.170Z,7.89
2022-10-09T21:24:01.205Z,7.83
2022-10-09T21:26:29.973Z,7.59
2022-10-09T21:28:59.859Z,7.42
2022-10-09T21:31:29.974Z,7.49
2022-10-09T21:33:58.368Z,7.58
2022-10-09T21:36:33.986Z,7.42
2022-10-09T21:39:02.173Z,7.45
2022-10-09T21:41:30.080Z,7.39
2022-10-09T21:43:57.960Z,7.18
2022-10-09T21:46:26.184Z,7.12
2022-10-09T21:48:54.293Z,7.23
2022-10-09T21:51:22.272Z,7.32
2022-10-09T21:53:51.516Z,7.16
2022-10-09T21:56:19.426Z,7.08
2022-10-09T21:58:49.136Z,7.04
2022-10-09T22:01:17.816Z,7.25
2022-10-09T22:03:45.876Z,7.09
2022-10-09T22:06:18.981Z,6.75
2022-10-09T22:08:47.949Z,6.78
2022-10-09T22:11:17.616Z,6.89
2022-10-09T22:13:45.580Z,6.77
2022-10-09T22:16:15.683Z,6.56
2022-10-09T22:18:44.324Z,6.40
2022-10-09T22:21:14.452Z,6.40
2022-10-09T22:23:43.041Z,6.44
2022-10-09T22:26:12.837Z,6.28
2022-10-09T22:28:42.439Z,6.31
2022-10-09T22:31:14.126Z,6.23
2022-10-09T22:33:42.181Z,6.24
2022-10-09T22:36:12.260Z,6.14
2022-10-09T22:38:40.632Z,6.10
2022-10-09T22:41:10.558Z,6.32
2022-10-09T22:43:39.977Z,6.38
2022-10-09T22:46:14.401Z,6.35
2022-10-09T22:48:42.582Z,6.03
2022-10-09T22:51:12.510Z,5.90
2022-10-09T22:53:41.774Z,5.94
2022-10-09T22:56:11.210Z,5.79
2022-10-09T22:58:39.105Z,5.75
2022-10-09T23:01:08.484Z,5.65
2022-10-09T23:03:37.865Z,5.66
2022-10-09T23:06:07.864Z,5.70
2022-10-09T23:08:35.761Z,5.62
2022-10-09T23:11:03.682Z,5.69
2022-10-09T23:13:31.605Z,5.56
2022-10-09T23:16:00.977Z,5.56
2022-10-09T23:18:29.662Z,5.53
2022-10-09T23:20:59.170Z,5.77
2022-10-09T23:23:29.058Z,5.71
2022-10-09T23:25:56.985Z,5.63
2022-10-09T23:28:27.618Z,5.53
2022-10-09T23:31:01.816Z,5.63
2022-10-09T23:33:29.739Z,5.53
2022-10-09T23:35:59.096Z,5.43
2022-10-09T23:38:26.971Z,5.34
2022-10-09T23:40:58.777Z,5.30
2022-10-09T23:43:27.181Z,5.23
2022-10-09T23:45:56.513Z,5.24
2022-10-09T23:48:24.452Z,5.22
2022-10-09T23:50:53.128Z,5.21
2022-10-09T23:53:22.744Z,5.28
2022-10-09T23:55:50.957Z,5.45
2022-10-09T23:58:21.020Z,5.42
